Time;durP1;ratioP1;P1;durP2;ratioP2;P2;SDS_P1;SDS_P2;PMS_P1;PMS_P2;Temp;Humidity;BMP_temperature;BMP_pressure;BME280_temperature;BME280_humidity;BME280_pressure;Samples;Min_cycle;Max_cycle;Signal;HPM_P1;HPM_P2
2021/05/13 00:01:59;;;;;;;20.63;5.50;;;11.00;96.80;;;;;;5099646;28;20487;-66
2021/05/13 00:04:24;;;;;;;22.60;5.97;;;11.00;96.70;;;;;;5102031;28;20027;-66
2021/05/13 00:06:50;;;;;;;21.27;5.93;;;10.90;96.90;;;;;;5097464;28;20090;-66
2021/05/13 00:09:16;;;;;;;17.98;5.88;;;10.90;96.90;;;;;;5103760;28;20140;-66
2021/05/13 00:11:47;;;;;;;19.60;5.78;;;11.00;96.90;;;;;;5100450;28;20043;-66
2021/05/13 00:14:16;;;;;;;19.20;5.55;;;11.00;96.80;;;;;;5102054;28;20376;-66
2021/05/13 00:16:42;;;;;;;18.83;5.97;;;11.00;96.70;;;;;;5094969;28;20160;-66
2021/05/13 00:19:12;;;;;;;19.58;5.80;;;11.00;96.80;;;;;;5104872;28;20040;-66
2021/05/13 00:21:40;;;;;;;22.65;5.90;;;11.00;96.90;;;;;;5096920;28;20443;-66
2021/05/13 00:24:08;;;;;;;19.52;5.72;;;11.00;96.80;;;;;;5103827;28;20162;-66
2021/05/13 00:26:38;;;;;;;22.30;5.40;;;11.00;96.70;;;;;;5090988;28;20040;-66
2021/05/13 00:29:07;;;;;;;24.88;6.00;;;11.00;96.90;;;;;;5097402;28;20039;-66
2021/05/13 00:31:33;;;;;;;25.90;6.07;;;11.00;96.90;;;;;;5096215;28;20043;-66
2021/05/13 00:34:00;;;;;;;21.42;5.60;;;11.00;96.70;;;;;;5104127;28;20043;-66
2021/05/13 00:36:35;;;;;;;21.73;5.93;;;11.00;96.90;;;;;;5097537;28;20053;-66
2021/05/13 00:39:02;;;;;;;17.80;5.68;;;11.00;96.80;;;;;;5097383;28;20120;-66
2021/05/13 00:41:28;;;;;;;24.17;5.65;;;10.90;97.20;;;;;;5085775;28;20108;-66
2021/05/13 00:43:54;;;;;;;17.38;5.55;;;10.90;97.00;;;;;;5097893;28;20047;-66
2021/05/13 00:46:24;;;;;;;22.35;5.93;;;10.90;96.90;;;;;;5086892;28;20101;-66
2021/05/13 00:48:52;;;;;;;19.08;6.32;;;10.90;97.00;;;;;;5095786;28;20048;-66
2021/05/13 00:51:18;;;;;;;21.13;6.13;;;10.90;97.10;;;;;;5106590;28;20039;-66
2021/05/13 00:53:47;;;;;;;18.60;5.68;;;10.90;97.00;;;;;;5104486;27;20094;-66
2021/05/13 00:56:16;;;;;;;24.55;6.20;;;10.90;96.90;;;;;;5106075;28;20039;-66
2021/05/13 00:58:45;;;;;;;23.08;5.95;;;10.90;97.00;;;;;;5097959;28;20646;-66
2021/05/13 01:01:16;;;;;;;24.48;5.60;;;10.90;96.80;;;;;;5105917;28;20047;-66
2021/05/13 01:03:43;;;;;;;19.92;5.53;;;10.90;96.80;;;;;;5104602;28;20048;-66
2021/05/13 01:06:14;;;;;;;19.08;6.07;;;10.90;96.80;;;;;;5109240;28;20039;-66
2021/05/13 01:08:41;;;;;;;17.40;5.57;;;10.90;96.80;;;;;;5104276;28;20372;-66
2021/05/13 01:11:10;;;;;;;23.70;6.18;;;10.90;96.70;;;;;;5103036;28;20044;-66
2021/05/13 01:13:49;;;;;;;15.45;5.28;;;10.90;96.80;;;;;;5100719;28;20069;-66
2021/05/13 01:19:10;;;;;;;17.80;5.43;;;10.90;96.70;;;;;;5082294;28;20048;-66
2021/05/13 01:21:40;;;;;;;21.63;5.80;;;10.90;96.60;;;;;;5106296;28;20476;-66
2021/05/13 01:24:07;;;;;;;23.73;6.00;;;10.90;96.60;;;;;;5103731;28;20031;-66
2021/05/13 01:26:32;;;;;;;22.63;5.63;;;10.90;96.50;;;;;;5105920;28;20048;-66
2021/05/13 01:28:59;;;;;;;15.57;5.68;;;11.00;96.40;;;;;;5103044;28;20487;-66
2021/05/13 01:31:26;;;;;;;19.58;5.90;;;10.90;96.40;;;;;;5105999;28;20031;-66
2021/05/13 01:33:51;;;;;;;20.35;5.78;;;11.00;96.40;;;;;;5102583;28;20146;-66
2021/05/13 01:36:17;;;;;;;19.13;5.60;;;11.00;96.30;;;;;;5106707;28;20134;-66
2021/05/13 01:38:43;;;;;;;20.35;5.22;;;11.00;96.20;;;;;;5107600;28;20039;-66
2021/05/13 01:41:09;;;;;;;15.25;5.13;;;10.90;96.20;;;;;;5102111;28;20043;-66
2021/05/13 01:43:35;;;;;;;17.33;4.97;;;10.80;96.20;;;;;;5111384;28;20539;-66
2021/05/13 01:46:01;;;;;;;23.20;5.75;;;10.90;96.10;;;;;;5102740;28;20126;-66
2021/05/13 01:48:28;;;;;;;16.48;4.88;;;10.80;96.00;;;;;;5108469;28;20042;-66
2021/05/13 01:50:55;;;;;;;16.85;4.80;;;10.80;96.10;;;;;;5098785;28;20032;-66
2021/05/13 01:53:21;;;;;;;14.90;5.15;;;10.80;96.10;;;;;;5112839;28;20036;-66
2021/05/13 01:55:48;;;;;;;19.58;5.43;;;10.80;96.10;;;;;;5098878;28;20051;-66
2021/05/13 01:58:14;;;;;;;15.98;4.70;;;10.80;96.20;;;;;;5106658;28;20035;-66
2021/05/13 02:00:44;;;;;;;18.35;4.97;;;10.70;96.20;;;;;;5104865;28;20051;-66
2021/05/13 02:03:11;;;;;;;17.02;5.40;;;10.70;96.10;;;;;;5105738;28;20102;-66
2021/05/13 02:05:37;;;;;;;19.13;5.15;;;10.70;96.20;;;;;;5100258;28;20036;-66
2021/05/13 02:08:03;;;;;;;19.63;6.22;;;10.70;96.20;;;;;;5106987;28;20053;-66
2021/05/13 02:10:29;;;;;;;16.20;5.28;;;10.60;96.30;;;;;;5098382;28;20122;-66
2021/05/13 02:12:56;;;;;;;18.67;5.00;;;10.60;96.30;;;;;;5101236;28;20107;-66
2021/05/13 02:15:23;;;;;;;19.70;5.63;;;10.60;96.40;;;;;;5100436;28;20043;-66
2021/05/13 02:17:49;;;;;;;16.98;6.20;;;10.60;96.30;;;;;;5106685;28;20047;-66
2021/05/13 02:20:21;;;;;;;16.35;5.45;;;10.50;96.50;;;;;;5105667;28;20082;-66
2021/05/13 02:22:47;;;;;;;15.48;4.78;;;10.60;96.40;;;;;;5099426;28;20031;-66
2021/05/13 02:25:13;;;;;;;18.02;5.65;;;10.50;96.30;;;;;;5103022;28;20065;-66
2021/05/13 02:27:39;;;;;;;14.10;4.90;;;10.60;96.40;;;;;;5098373;28;20036;-66
2021/05/13 02:30:07;;;;;;;19.55;5.72;;;10.60;96.40;;;;;;5103466;28;20489;-66
2021/05/13 02:32:34;;;;;;;14.90;4.90;;;10.60;96.40;;;;;;5095375;28;20040;-66
2021/05/13 02:35:00;;;;;;;22.88;5.80;;;10.60;96.40;;;;;;5103136;28;20039;-66
2021/05/13 02:37:26;;;;;;;19.45;6.20;;;10.60;96.30;;;;;;5097786;28;20040;-66
2021/05/13 02:39:52;;;;;;;13.65;5.47;;;10.60;96.50;;;;;;5103981;28;20499;-66
2021/05/13 02:42:18;;;;;;;20.45;5.72;;;10.50;96.40;;;;;;5098612;28;20036;-67
2021/05/13 02:44:44;;;;;;;15.38;5.63;;;10.50;96.40;;;;;;5106712;28;20493;-67
2021/05/13 02:47:10;;;;;;;15.55;4.88;;;10.60;96.40;;;;;;5100573;28;20047;-67
2021/05/13 02:49:36;;;;;;;18.27;5.75;;;10.60;96.40;;;;;;5100168;28;20032;-67
2021/05/13 02:52:04;;;;;;;20.65;5.57;;;10.60;96.40;;;;;;5095083;28;20127;-67
2021/05/13 02:54:29;;;;;;;14.23;5.70;;;10.50;96.40;;;;;;5102014;28;20119;-67
2021/05/13 02:56:55;;;;;;;12.63;5.38;;;10.50;96.30;;;;;;5099827;28;20135;-67
2021/05/13 02:59:28;;;;;;;18.08;6.13;;;10.60;96.30;;;;;;5102032;28;20047;-67
2021/05/13 03:01:53;;;;;;;19.02;6.32;;;10.50;96.40;;;;;;5103338;28;20035;-67
2021/05/13 03:04:19;;;;;;;15.07;5.65;;;10.50;96.40;;;;;;5098456;28;20031;-67
2021/05/13 03:06:45;;;;;;;19.13;6.00;;;10.50;96.50;;;;;;5103358;28;20445;-67
2021/05/13 03:09:11;;;;;;;19.85;6.47;;;10.50;96.40;;;;;;5098378;28;20480;-67
2021/05/13 03:11:36;;;;;;;23.52;6.65;;;10.50;96.40;;;;;;5104906;28;20057;-67
2021/05/13 03:14:04;;;;;;;19.75;6.47;;;10.50;96.30;;;;;;5097480;28;20036;-67
2021/05/13 03:16:30;;;;;;;15.65;5.53;;;10.50;96.30;;;;;;5101655;28;20115;-67
2021/05/13 03:18:57;;;;;;;15.52;5.78;;;10.50;96.40;;;;;;5096705;28;20487;-67
2021/05/13 03:26:42;;;;;;;18.83;5.53;;;10.40;96.30;;;;;;5102945;28;20237;-66
2021/05/13 03:29:08;;;;;;;13.88;4.72;;;10.30;96.20;;;;;;5097278;28;20485;-66
2021/05/13 03:31:34;;;;;;;17.13;5.53;;;10.30;96.10;;;;;;5104661;28;20035;-66
2021/05/13 03:34:01;;;;;;;17.42;5.68;;;10.20;96.10;;;;;;5093921;28;20073;-66
2021/05/13 03:36:27;;;;;;;15.50;5.40;;;10.20;96.10;;;;;;5103796;28;20038;-66
2021/05/13 03:38:53;;;;;;;15.82;6.45;;;10.20;96.10;;;;;;5091866;28;20089;-66
2021/05/13 03:41:19;;;;;;;15.27;5.13;;;10.20;96.10;;;;;;5103697;28;20452;-66
2021/05/13 03:43:45;;;;;;;19.42;6.60;;;10.10;96.20;;;;;;5097248;28;20032;-67
2021/05/13 03:46:11;;;;;;;16.15;5.53;;;10.00;96.30;;;;;;5104458;28;20450;-67
2021/05/13 03:48:38;;;;;;;15.38;5.68;;;10.00;96.20;;;;;;5104056;28;20623;-67
2021/05/13 03:51:04;;;;;;;18.10;5.93;;;10.00;96.30;;;;;;5096108;28;20043;-67
2021/05/13 03:53:30;;;;;;;13.88;5.38;;;10.00;96.40;;;;;;5100185;28;21073;-67
2021/05/13 03:55:56;;;;;;;15.88;5.72;;;9.90;96.30;;;;;;5092032;28;20051;-67
2021/05/13 03:58:26;;;;;;;17.60;6.25;;;9.90;96.50;;;;;;5105057;28;20074;-67
2021/05/13 04:03:18;;;;;;;19.08;6.05;;;9.80;96.60;;;;;;5102021;28;20047;-67
2021/05/13 04:05:44;;;;;;;17.45;5.72;;;9.80;96.90;;;;;;5099810;28;23977;-67
2021/05/13 04:08:11;;;;;;;15.85;5.97;;;9.80;96.90;;;;;;5105983;28;20171;-67
2021/05/13 04:10:37;;;;;;;15.57;5.78;;;9.70;97.10;;;;;;5095386;28;20035;-66
2021/05/13 04:13:05;;;;;;;19.13;6.82;;;9.70;97.10;;;;;;5101879;28;20044;-66
2021/05/13 04:15:31;;;;;;;20.98;7.13;;;9.60;97.10;;;;;;5094426;28;20031;-66
2021/05/13 04:17:57;;;;;;;19.00;7.45;;;9.60;97.30;;;;;;5100754;28;20070;-66
2021/05/13 04:20:23;;;;;;;21.60;6.93;;;9.60;97.50;;;;;;5094833;28;20491;-66
2021/05/13 04:22:49;;;;;;;16.52;7.40;;;9.60;97.50;;;;;;5098794;28;20506;-66
2021/05/13 04:25:15;;;;;;;17.23;7.45;;;9.60;97.40;;;;;;5099621;28;20036;-66
2021/05/13 04:27:43;;;;;;;23.52;7.50;;;9.60;97.40;;;;;;5099592;28;20039;-66
2021/05/13 04:30:09;;;;;;;12.35;7.18;;;9.60;97.40;;;;;;5099811;28;20042;-66
2021/05/13 04:32:35;;;;;;;18.77;7.47;;;9.60;97.40;;;;;;5097070;28;20491;-66
2021/05/13 04:35:02;;;;;;;17.80;6.68;;;9.70;97.40;;;;;;5101193;28;20047;-66
2021/05/13 04:37:28;;;;;;;17.80;7.40;;;9.70;97.50;;;;;;5099801;28;20058;-66
2021/05/13 04:40:02;;;;;;;15.80;7.70;;;9.70;97.40;;;;;;5103208;28;20438;-66
2021/05/13 04:42:28;;;;;;;17.73;7.50;;;9.70;97.40;;;;;;5095456;28;20548;-66
2021/05/13 04:44:56;;;;;;;12.30;6.38;;;9.70;97.40;;;;;;5105291;28;20126;-66
2021/05/13 04:49:52;;;;;;;21.70;7.75;;;9.70;97.30;;;;;;5099756;28;20043;-66
2021/05/13 04:52:19;;;;;;;16.17;7.82;;;9.70;97.30;;;;;;5098231;28;20039;-66
2021/05/13 04:54:49;;;;;;;16.08;7.68;;;9.70;97.30;;;;;;5104867;28;20461;-66
2021/05/13 04:57:15;;;;;;;17.83;7.07;;;9.70;97.50;;;;;;5095589;28;20050;-66
2021/05/13 04:59:41;;;;;;;17.98;7.10;;;9.70;97.40;;;;;;5106043;28;20623;-66
2021/05/13 05:02:06;;;;;;;17.63;7.60;;;9.70;97.50;;;;;;5097623;28;20072;-66
2021/05/13 05:04:32;;;;;;;14.23;7.35;;;9.70;97.40;;;;;;5100768;28;20502;-66
2021/05/13 05:06:58;;;;;;;18.08;7.18;;;9.70;97.50;;;;;;5092619;28;20472;-66
2021/05/13 05:09:25;;;;;;;16.42;7.65;;;9.70;97.40;;;;;;5104368;28;20446;-67
2021/05/13 05:11:51;;;;;;;20.70;7.22;;;9.70;97.40;;;;;;5103740;28;20130;-67
2021/05/13 05:14:17;;;;;;;16.05;7.10;;;9.70;97.40;;;;;;5095861;28;20031;-67
2021/05/13 05:16:43;;;;;;;14.68;7.28;;;9.80;97.40;;;;;;5103274;28;20475;-67
2021/05/13 05:19:09;;;;;;;17.50;6.63;;;9.80;97.50;;;;;;5096556;28;20044;-67
2021/05/13 05:21:38;;;;;;;17.63;6.75;;;9.80;97.50;;;;;;5102044;28;20046;-67
2021/05/13 05:24:05;;;;;;;14.63;6.53;;;9.80;97.40;;;;;;5099249;28;20442;-67
2021/05/13 05:26:32;;;;;;;16.63;6.43;;;9.80;97.60;;;;;;5096893;28;20135;-67
2021/05/13 05:28:57;;;;;;;16.83;6.72;;;9.90;97.60;;;;;;5096399;28;20129;-67
2021/05/13 05:31:23;;;;;;;16.52;6.60;;;10.00;97.60;;;;;;5100368;28;20040;-67
2021/05/13 05:33:49;;;;;;;16.00;7.03;;;10.10;97.50;;;;;;5100084;28;20039;-67
2021/05/13 05:36:15;;;;;;;13.05;5.80;;;10.20;97.40;;;;;;5105085;28;20054;-67
2021/05/13 05:38:41;;;;;;;13.38;6.13;;;10.20;97.10;;;;;;5101454;28;20070;-67
2021/05/13 05:41:07;;;;;;;16.73;6.80;;;10.30;97.10;;;;;;5105612;28;20110;-67
2021/05/13 05:43:33;;;;;;;12.65;6.38;;;10.40;97.00;;;;;;5097971;28;20044;-67
2021/05/13 05:45:59;;;;;;;13.93;5.95;;;10.60;96.90;;;;;;5103685;28;20105;-67
2021/05/13 05:48:26;;;;;;;13.95;5.13;;;10.70;96.70;;;;;;5101891;28;20059;-67
2021/05/13 05:50:53;;;;;;;13.43;5.40;;;10.80;96.60;;;;;;5104396;28;20044;-67
2021/05/13 05:53:18;;;;;;;14.95;5.72;;;10.90;96.40;;;;;;5107722;28;20040;-67
2021/05/13 05:55:44;;;;;;;15.52;6.18;;;11.00;96.20;;;;;;5096956;28;20079;-67
2021/05/13 05:58:10;;;;;;;16.40;6.47;;;11.10;96.00;;;;;;5110973;28;20058;-67
2021/05/13 06:00:37;;;;;;;12.35;5.43;;;11.20;96.10;;;;;;5100861;28;20046;-67
2021/05/13 06:03:04;;;;;;;16.45;5.60;;;11.30;96.00;;;;;;5104130;28;20072;-67
2021/05/13 06:05:31;;;;;;;12.27;5.32;;;11.40;96.00;;;;;;5101442;28;20034;-67
2021/05/13 06:07:57;;;;;;;14.43;4.82;;;11.50;96.00;;;;;;5107863;28;20114;-67
2021/05/13 06:10:23;;;;;;;13.75;5.13;;;11.60;95.70;;;;;;5099269;28;20036;-67
2021/05/13 06:12:49;;;;;;;12.70;5.53;;;11.70;95.60;;;;;;5104232;28;20491;-67
2021/05/13 06:15:18;;;;;;;11.45;4.53;;;11.80;95.10;;;;;;5103818;28;20147;-67
2021/05/13 06:17:45;;;;;;;12.30;5.00;;;12.00;95.00;;;;;;5107074;28;20036;-67
2021/05/13 06:20:25;;;;;;;12.00;4.43;;;12.20;94.90;;;;;;5081295;28;20096;-67
2021/05/13 06:22:51;;;;;;;14.23;4.05;;;12.40;94.60;;;;;;5106970;28;20425;-67
2021/05/13 06:25:18;;;;;;;13.43;4.45;;;12.40;93.90;;;;;;5096527;28;20042;-67
2021/05/13 06:27:48;;;;;;;12.63;4.15;;;12.50;93.80;;;;;;5102645;28;21163;-67
2021/05/13 06:30:15;;;;;;;11.65;4.07;;;12.60;93.10;;;;;;5102620;28;20039;-67
2021/05/13 06:32:43;;;;;;;13.32;4.07;;;12.60;93.10;;;;;;5104810;28;20040;-67
2021/05/13 06:35:10;;;;;;;11.63;3.67;;;12.60;92.50;;;;;;5108225;28;20036;-67
2021/05/13 06:37:37;;;;;;;12.45;3.47;;;12.80;92.80;;;;;;5093942;28;20062;-67
2021/05/13 06:40:04;;;;;;;12.40;3.45;;;12.90;92.40;;;;;;5109074;28;20036;-67
2021/05/13 06:42:37;;;;;;;13.48;3.92;;;13.00;92.00;;;;;;5092534;28;20449;-67
2021/05/13 06:45:08;;;;;;;11.90;3.83;;;13.00;92.00;;;;;;5107283;28;20058;-67
2021/05/13 06:47:39;;;;;;;14.43;3.63;;;13.00;92.00;;;;;;5097349;28;20038;-67
2021/05/13 06:50:07;;;;;;;9.93;3.05;;;13.10;91.70;;;;;;5106359;28;20039;-67
2021/05/13 06:52:33;;;;;;;10.07;2.60;;;13.20;91.80;;;;;;5100887;28;20043;-67
2021/05/13 06:54:59;;;;;;;9.85;2.97;;;13.40;91.10;;;;;;5105144;28;20050;-67
2021/05/13 06:57:24;;;;;;;10.05;2.60;;;13.50;90.70;;;;;;5101398;28;20056;-67
2021/05/13 06:59:50;;;;;;;17.30;7.47;;;13.70;90.60;;;;;;5109000;28;20284;-67
2021/05/13 07:02:16;;;;;;;13.18;3.40;;;13.80;89.20;;;;;;5098318;28;20031;-67
2021/05/13 07:04:42;;;;;;;11.07;2.42;;;13.90;88.40;;;;;;5109292;28;20063;-67
2021/05/13 07:07:08;;;;;;;11.23;2.33;;;14.00;86.20;;;;;;5097420;28;20109;-67
2021/05/13 07:09:34;;;;;;;11.05;2.67;;;14.00;87.10;;;;;;5105500;28;20047;-67
2021/05/13 07:12:00;;;;;;;8.52;1.67;;;14.10;86.00;;;;;;5098915;28;20052;-67
2021/05/13 07:14:26;;;;;;;10.18;2.20;;;14.30;87.10;;;;;;5106168;28;20554;-67
2021/05/13 07:16:53;;;;;;;10.50;2.13;;;14.40;85.40;;;;;;5098611;28;20052;-67
2021/05/13 07:19:19;;;;;;;12.40;2.20;;;14.40;82.40;;;;;;5097759;28;20399;-67
2021/05/13 07:21:45;;;;;;;7.57;2.10;;;14.50;81.10;;;;;;5101857;28;20036;-67
2021/05/13 07:24:11;;;;;;;10.70;2.80;;;14.60;82.80;;;;;;5097145;28;20488;-67
2021/05/13 07:26:37;;;;;;;9.88;3.50;;;14.70;82.40;;;;;;5100621;28;20115;-67
2021/05/13 07:29:04;;;;;;;12.48;2.00;;;14.70;82.00;;;;;;5098380;28;20049;-67
2021/05/13 07:31:30;;;;;;;9.38;1.88;;;14.80;81.70;;;;;;5102437;28;20036;-67
2021/05/13 07:33:55;;;;;;;10.68;2.10;;;14.90;80.70;;;;;;5096381;28;20122;-67
2021/05/13 07:36:21;;;;;;;9.75;2.30;;;15.10;81.80;;;;;;5101697;28;20490;-67
2021/05/13 07:38:47;;;;;;;8.65;2.13;;;15.40;79.60;;;;;;5093244;28;20531;-67
2021/05/13 07:41:16;;;;;;;6.47;2.00;;;15.50;78.40;;;;;;5102080;28;20036;-67
2021/05/13 07:43:43;;;;;;;12.02;2.90;;;15.70;77.20;;;;;;5097460;28;20050;-67
2021/05/13 07:46:10;;;;;;;8.35;1.42;;;15.80;76.40;;;;;;5102603;28;20407;-67
2021/05/13 07:48:36;;;;;;;8.57;1.60;;;15.70;74.30;;;;;;5095940;28;20031;-67
2021/05/13 07:51:03;;;;;;;9.23;1.70;;;15.50;74.60;;;;;;5100022;28;20042;-67
2021/05/13 07:53:29;;;;;;;6.53;1.42;;;15.50;75.80;;;;;;5094195;28;20479;-67
2021/05/13 07:55:55;;;;;;;9.40;1.50;;;15.50;75.50;;;;;;5099254;28;20068;-67
2021/05/13 07:58:21;;;;;;;10.13;1.58;;;15.60;75.30;;;;;;5101269;28;20067;-67
2021/05/13 08:00:48;;;;;;;7.38;1.70;;;15.80;75.90;;;;;;5094513;28;20080;-67
2021/05/13 08:03:13;;;;;;;7.38;1.80;;;16.00;75.30;;;;;;5101457;28;20080;-67
2021/05/13 08:05:39;;;;;;;8.50;1.60;;;16.10;75.20;;;;;;5091082;28;20453;-67
2021/05/13 08:08:05;;;;;;;5.07;1.02;;;16.40;73.40;;;;;;5104961;28;20040;-67
2021/05/13 08:10:31;;;;;;;8.45;1.45;;;16.40;69.70;;;;;;5098303;28;20036;-67
2021/05/13 08:12:57;;;;;;;6.50;1.30;;;16.40;68.30;;;;;;5104229;28;20047;-67
2021/05/13 08:15:23;;;;;;;5.10;0.82;;;16.50;70.50;;;;;;5098238;28;20480;-77
2021/05/13 08:17:49;;;;;;;5.50;1.00;;;16.40;65.80;;;;;;5104800;28;20047;-76
2021/05/13 08:20:16;;;;;;;5.40;1.00;;;16.40;68.10;;;;;;5093866;28;20068;-76
2021/05/13 08:22:43;;;;;;;5.38;1.13;;;16.60;67.50;;;;;;5103904;28;20062;-74
2021/05/13 08:25:11;;;;;;;5.75;1.40;;;16.80;67.70;;;;;;5101085;28;20035;-74
2021/05/13 08:27:38;;;;;;;4.25;0.95;;;16.90;65.30;;;;;;5104124;28;20043;-73
2021/05/13 08:30:06;;;;;;;4.88;1.00;;;17.10;64.00;;;;;;5082649;28;20375;-66
2021/05/13 08:32:32;;;;;;;5.55;0.80;;;17.30;63.20;;;;;;5099864;28;20036;-66
2021/05/13 08:34:57;;;;;;;4.47;0.80;;;17.60;63.00;;;;;;5100828;28;20123;-68
2021/05/13 08:37:23;;;;;;;6.30;0.98;;;18.00;60.70;;;;;;5102009;28;20036;-68
2021/05/13 08:39:50;;;;;;;4.75;0.93;;;18.20;56.20;;;;;;5100540;28;20063;-66
2021/05/13 08:42:16;;;;;;;11.07;2.53;;;18.40;58.30;;;;;;5097174;28;20399;-66
2021/05/13 08:44:43;;;;;;;15.10;4.47;;;18.70;57.70;;;;;;5099115;28;20040;-67
2021/05/13 08:47:10;;;;;;;6.65;1.42;;;19.00;57.10;;;;;;5094104;28;20158;-67
2021/05/13 08:49:36;;;;;;;4.07;1.00;;;19.20;57.00;;;;;;5097913;28;20048;-66
2021/05/13 08:52:11;;;;;;;5.30;1.20;;;19.20;57.00;;;;;;5097655;28;20072;-68
2021/05/13 08:54:58;;;;;;;5.85;1.23;;;19.10;57.10;;;;;;5102689;28;20106;-68
2021/05/13 08:57:25;;;;;;;5.70;1.25;;;19.20;55.60;;;;;;5093306;28;20177;-68
2021/05/13 08:59:51;;;;;;;4.43;1.15;;;19.50;56.60;;;;;;5099568;28;20035;-67
2021/05/13 09:02:18;;;;;;;8.23;1.17;;;19.40;55.60;;;;;;5100290;28;20063;-68
2021/05/13 09:04:46;;;;;;;9.27;2.10;;;19.30;56.60;;;;;;5099441;28;20040;-68
2021/05/13 09:07:22;;;;;;;5.15;1.10;;;19.50;57.00;;;;;;5091961;28;20032;-68
2021/05/13 09:10:08;;;;;;;15.07;5.25;;;19.80;57.20;;;;;;5102266;28;20456;-69
2021/05/13 09:12:44;;;;;;;7.63;1.38;;;19.80;55.50;;;;;;5096929;28;20047;-69
2021/05/13 09:15:18;;;;;;;25.13;9.38;;;20.00;57.20;;;;;;5106419;28;20382;-68
2021/05/13 09:17:45;;;;;;;;;;;20.20;56.50;;;;;;5103313;28;20039;-69
2021/05/13 09:20:29;;;;;;;6.97;2.08;;;20.20;51.90;;;;;;5107137;28;19916;-69
2021/05/13 09:23:14;;;;;;;10.68;3.72;;;20.00;53.50;;;;;;5098470;28;20040;-69
2021/05/13 09:25:43;;;;;;;5.82;1.90;;;20.00;53.50;;;;;;5103970;28;20035;-68
2021/05/13 09:28:09;;;;;;;5.68;1.38;;;19.80;54.10;;;;;;5098658;28;20498;-70
2021/05/13 09:30:35;;;;;;;6.90;1.80;;;19.90;56.80;;;;;;5107408;28;20035;-70
2021/05/13 09:33:03;;;;;;;5.40;1.40;;;20.00;56.30;;;;;;5096638;28;20438;-70
2021/05/13 09:35:37;;;;;;;8.40;1.80;;;20.00;53.40;;;;;;5106313;28;20494;-69
2021/05/13 09:38:06;;;;;;;;;;;20.10;53.10;;;;;;5099792;28;20027;-70
2021/05/13 09:40:39;;;;;;;5.88;1.52;;;20.20;51.00;;;;;;5103552;28;20466;-69
2021/05/13 09:43:19;;;;;;;6.95;1.48;;;20.10;54.20;;;;;;5097466;28;20047;-69
2021/05/13 09:45:52;;;;;;;9.40;3.05;;;20.40;50.40;;;;;;5100618;28;20442;-68
2021/05/13 09:48:43;;;;;;;6.28;1.80;;;20.40;52.60;;;;;;5102346;28;20467;-68
2021/05/13 09:51:29;;;;;;;5.85;1.60;;;20.60;52.90;;;;;;5100985;28;20089;-68
2021/05/13 09:54:12;;;;;;;6.60;1.40;;;21.00;51.50;;;;;;5098838;28;20040;-69
2021/05/13 09:56:40;;;;;;;6.27;1.47;;;20.90;47.80;;;;;;5104897;28;20078;-69
2021/05/13 09:59:28;;;;;;;4.65;1.30;;;20.60;50.10;;;;;;5098437;28;20263;-69
2021/05/13 10:02:04;;;;;;;7.10;1.20;;;20.70;50.00;;;;;;5106136;28;20052;-69
2021/05/13 10:04:29;;;;;;;6.18;2.38;;;20.80;51.60;;;;;;5097654;28;20036;-71
2021/05/13 10:06:55;;;;;;;6.43;1.50;;;20.80;50.90;;;;;;5103968;28;20043;-70
2021/05/13 10:09:21;;;;;;;9.23;1.60;;;21.10;51.00;;;;;;5095195;28;20036;-69
2021/05/13 10:11:59;;;;;;;4.50;1.30;;;21.20;48.90;;;;;;5101209;28;20059;-69
2021/05/13 10:14:27;;;;;;;4.38;1.15;;;21.50;49.90;;;;;;5091990;28;20035;-70
2021/05/13 10:17:00;;;;;;;4.93;1.65;;;21.60;49.10;;;;;;5105204;28;20067;-70
2021/05/13 10:19:33;;;;;;;5.50;1.13;;;21.60;48.40;;;;;;5093865;28;20522;-70
2021/05/13 10:22:01;;;;;;;6.68;1.65;;;21.70;49.50;;;;;;5105990;28;20112;-70
2021/05/13 10:24:27;;;;;;;10.52;2.40;;;21.90;48.60;;;;;;5093943;28;20032;-70
2021/05/13 10:26:53;;;;;;;6.75;1.58;;;21.80;47.50;;;;;;5102713;28;20043;-69
2021/05/13 10:29:22;;;;;;;6.95;2.03;;;21.60;46.80;;;;;;5101539;28;20498;-69
2021/05/13 10:32:08;;;;;;;5.35;1.70;;;21.50;49.40;;;;;;5101154;28;20574;-69
2021/05/13 10:34:57;;;;;;;5.82;1.52;;;21.50;47.30;;;;;;5081335;28;20036;-69
2021/05/13 10:37:28;;;;;;;18.77;1.90;;;21.40;48.60;;;;;;5101317;28;20507;-68
2021/05/13 10:42:39;;;;;;;8.65;1.33;;;21.10;49.60;;;;;;5105019;28;20046;-69
2021/05/13 10:45:23;;;;;;;6.82;1.60;;;21.10;50.30;;;;;;5098520;28;20032;-69
2021/05/13 10:48:37;;;;;;;5.65;1.88;;;21.30;48.10;;;;;;5101063;28;20492;-69
2021/05/13 10:51:07;;;;;;;6.68;1.83;;;21.30;47.30;;;;;;5095639;28;20401;-69
2021/05/13 10:53:35;;;;;;;6.82;1.63;;;21.30;48.40;;;;;;5102790;28;20047;-69
2021/05/13 10:56:26;;;;;;;9.27;2.10;;;21.40;48.80;;;;;;5089549;28;20051;-69
2021/05/13 10:59:09;;;;;;;6.63;1.95;;;21.10;46.40;;;;;;5101691;28;20052;-69
2021/05/13 11:01:56;;;;;;;5.65;1.67;;;20.40;49.10;;;;;;5096241;28;20383;-69
2021/05/13 11:04:29;;;;;;;8.38;2.22;;;19.90;50.40;;;;;;5104336;28;20071;-69
2021/05/13 11:06:59;;;;;;;8.10;2.00;;;19.40;51.00;;;;;;5076728;28;20189;-68
2021/05/13 11:09:41;;;;;;;6.95;1.45;;;19.10;52.20;;;;;;5101033;28;20406;-68
2021/05/13 11:12:22;;;;;;;6.45;1.50;;;19.00;52.80;;;;;;5095239;28;20062;-68
2021/05/13 11:17:52;;;;;;;6.63;1.45;;;19.30;51.50;;;;;;5102361;28;20530;-69
2021/05/13 11:20:29;;;;;;;7.18;1.40;;;19.20;50.70;;;;;;5102955;28;20482;-66
2021/05/13 11:22:56;;;;;;;7.35;1.33;;;18.60;51.70;;;;;;5094259;28;20068;-66
2021/05/13 11:25:49;;;;;;;5.57;1.35;;;18.30;53.10;;;;;;5105368;28;20040;-65
2021/05/13 11:28:50;;;;;;;6.15;1.50;;;18.20;53.00;;;;;;5095899;28;20395;-65
2021/05/13 11:31:20;;;;;;;5.38;1.27;;;18.10;52.90;;;;;;5103789;28;20031;-66
2021/05/13 11:33:51;;;;;;;4.75;1.27;;;18.10;54.90;;;;;;5096903;28;20472;-66
2021/05/13 11:36:18;;;;;;;6.10;1.00;;;18.80;53.50;;;;;;5104798;28;20115;-69
2021/05/13 11:38:49;;;;;;;7.05;1.40;;;19.60;52.00;;;;;;5102041;28;20100;-66
2021/05/13 11:41:16;;;;;;;6.03;1.08;;;20.30;48.10;;;;;;5101648;28;20052;-67
2021/05/13 11:43:43;;;;;;;4.70;1.20;;;20.80;48.30;;;;;;5102186;28;20081;-67
2021/05/13 11:46:10;;;;;;;5.35;1.08;;;21.20;47.50;;;;;;5102785;28;20435;-66
2021/05/13 11:48:40;;;;;;;4.82;1.00;;;21.60;47.00;;;;;;5101210;28;20123;-66
2021/05/13 11:51:19;;;;;;;4.78;1.25;;;21.90;45.10;;;;;;5100504;28;20055;-66
2021/05/13 11:53:46;;;;;;;4.30;1.10;;;21.80;44.80;;;;;;5098231;28;20043;-66
2021/05/13 11:56:14;;;;;;;6.38;1.42;;;21.30;45.20;;;;;;5104377;28;20111;-66
2021/05/13 11:58:45;;;;;;;6.20;1.17;;;21.00;45.50;;;;;;5096947;28;20411;-66
2021/05/13 12:01:24;;;;;;;4.10;1.27;;;20.60;45.80;;;;;;5099367;28;20058;-66
2021/05/13 12:04:00;;;;;;;4.13;0.90;;;20.60;45.50;;;;;;5096094;28;20042;-66
2021/05/13 12:06:27;;;;;;;7.88;1.17;;;20.80;48.20;;;;;;5102910;28;20032;-66
2021/05/13 12:08:54;;;;;;;4.85;1.10;;;21.30;47.30;;;;;;5094384;28;20051;-66
2021/05/13 12:11:21;;;;;;;4.72;0.98;;;21.70;45.70;;;;;;5103843;28;20040;-66
2021/05/13 12:13:49;;;;;;;4.25;0.90;;;21.60;44.70;;;;;;5098711;28;20043;-65
2021/05/13 12:16:16;;;;;;;4.22;1.00;;;21.00;44.00;;;;;;5101446;28;20115;-65
2021/05/13 12:18:43;;;;;;;6.18;1.05;;;20.50;45.40;;;;;;5092656;28;20102;-65
2021/05/13 12:21:12;;;;;;;5.32;1.15;;;19.90;45.90;;;;;;5082479;28;20396;-65
2021/05/13 12:23:42;;;;;;;6.05;1.75;;;19.40;46.80;;;;;;5103087;28;20039;-65
2021/05/13 12:26:11;;;;;;;6.32;1.65;;;19.20;48.00;;;;;;5101382;28;20044;-65
2021/05/13 12:28:37;;;;;;;5.30;0.98;;;18.80;48.20;;;;;;5100658;28;20067;-65
2021/05/13 12:31:03;;;;;;;3.15;1.08;;;18.70;50.00;;;;;;5100241;28;20056;-65
2021/05/13 12:33:35;;;;;;;5.20;0.90;;;18.70;50.30;;;;;;5102019;28;20089;-65
2021/05/13 12:36:01;;;;;;;6.78;1.20;;;18.90;49.60;;;;;;5094029;28;20035;-64
2021/05/13 12:38:27;;;;;;;3.55;0.88;;;18.90;49.90;;;;;;5100236;28;20031;-66
2021/05/13 12:41:24;;;;;;;4.43;0.95;;;18.80;50.70;;;;;;5093301;28;20571;-66
2021/05/13 12:44:03;;;;;;;5.47;1.05;;;18.70;51.30;;;;;;5096841;28;20064;-66
2021/05/13 12:46:29;;;;;;;6.93;1.08;;;18.60;52.10;;;;;;5095762;28;20660;-66
2021/05/13 12:48:55;;;;;;;6.45;0.80;;;19.10;51.00;;;;;;5095046;28;20048;-66
2021/05/13 12:51:25;;;;;;;5.15;1.13;;;19.80;52.10;;;;;;5099275;28;20039;-66
2021/05/13 12:53:56;;;;;;;4.45;0.90;;;20.50;48.40;;;;;;5102307;28;20047;-65
2021/05/13 12:56:24;;;;;;;3.95;0.90;;;20.90;48.80;;;;;;5090812;28;20047;-66
2021/05/13 12:59:02;;;;;;;4.32;1.10;;;20.60;46.50;;;;;;5103504;28;20050;-65
2021/05/13 13:01:28;;;;;;;4.78;1.15;;;20.10;46.30;;;;;;5099170;28;20040;-66
2021/05/13 13:03:56;;;;;;;5.00;1.17;;;19.50;48.00;;;;;;5104961;28;20501;-65
2021/05/13 13:06:23;;;;;;;3.78;0.82;;;19.20;49.40;;;;;;5095436;28;20052;-65
2021/05/13 13:08:51;;;;;;;3.83;1.33;;;18.80;49.60;;;;;;5102179;28;20092;-65
2021/05/13 13:11:32;;;;;;;4.85;0.80;;;18.70;50.30;;;;;;5097827;28;20031;-64